sensor_id;sensor_type;location;lat;lon;timestamp;P1;durP1;ratioP1;P2;durP2;ratioP2
17390;SDS011;8813;54.444;18.446;2024-02-21T00:01:40;2.42;;;2.42;;
17390;SDS011;8813;54.444;18.446;2024-02-21T00:04:08;3.08;;;2.97;;
17390;SDS011;8813;54.444;18.446;2024-02-21T00:06:35;2.00;;;2.00;;
17390;SDS011;8813;54.444;18.446;2024-02-21T00:09:02;1.90;;;1.90;;
17390;SDS011;8813;54.444;18.446;2024-02-21T00:11:29;2.10;;;2.10;;
17390;SDS011;8813;54.444;18.446;2024-02-21T00:13:56;1.83;;;1.83;;
17390;SDS011;8813;54.444;18.446;2024-02-21T00:16:23;2.00;;;2.00;;
17390;SDS011;8813;54.444;18.446;2024-02-21T00:18:50;2.00;;;2.00;;
17390;SDS011;8813;54.444;18.446;2024-02-21T00:21:18;4.20;;;2.50;;
17390;SDS011;8813;54.444;18.446;2024-02-21T00:23:45;2.33;;;2.10;;
17390;SDS011;8813;54.444;18.446;2024-02-21T00:26:12;2.30;;;2.30;;
17390;SDS011;8813;54.444;18.446;2024-02-21T00:28:39;2.38;;;2.38;;
17390;SDS011;8813;54.444;18.446;2024-02-21T00:31:06;4.15;;;3.85;;
17390;SDS011;8813;54.444;18.446;2024-02-21T00:33:33;3.33;;;3.03;;
17390;SDS011;8813;54.444;18.446;2024-02-21T00:36:00;2.40;;;2.40;;
17390;SDS011;8813;54.444;18.446;2024-02-21T00:38:28;2.30;;;2.30;;
17390;SDS011;8813;54.444;18.446;2024-02-21T00:40:55;2.10;;;2.10;;
17390;SDS011;8813;54.444;18.446;2024-02-21T00:43:24;2.72;;;2.63;;
17390;SDS011;8813;54.444;18.446;2024-02-21T00:45:51;21.70;;;3.00;;
17390;SDS011;8813;54.444;18.446;2024-02-21T00:48:18;2.10;;;2.10;;
17390;SDS011;8813;54.444;18.446;2024-02-21T00:50:45;2.45;;;2.45;;
17390;SDS011;8813;54.444;18.446;2024-02-21T00:53:12;2.85;;;2.50;;
17390;SDS011;8813;54.444;18.446;2024-02-21T00:55:41;3.20;;;2.83;;
17390;SDS011;8813;54.444;18.446;2024-02-21T00:58:08;4.05;;;3.67;;
17390;SDS011;8813;54.444;18.446;2024-02-21T01:00:35;2.70;;;2.70;;
17390;SDS011;8813;54.444;18.446;2024-02-21T01:03:02;2.70;;;2.70;;
17390;SDS011;8813;54.444;18.446;2024-02-21T01:05:29;2.50;;;2.50;;
17390;SDS011;8813;54.444;18.446;2024-02-21T01:07:56;2.33;;;2.33;;
17390;SDS011;8813;54.444;18.446;2024-02-21T01:10:23;3.10;;;3.00;;
17390;SDS011;8813;54.444;18.446;2024-02-21T01:12:56;2.70;;;2.70;;
17390;SDS011;8813;54.444;18.446;2024-02-21T01:15:23;2.65;;;2.65;;
17390;SDS011;8813;54.444;18.446;2024-02-21T01:17:50;5.75;;;3.10;;
17390;SDS011;8813;54.444;18.446;2024-02-21T01:20:20;3.75;;;3.65;;
17390;SDS011;8813;54.444;18.446;2024-02-21T01:22:47;2.90;;;2.90;;
17390;SDS011;8813;54.444;18.446;2024-02-21T01:25:13;5.20;;;4.90;;
17390;SDS011;8813;54.444;18.446;2024-02-21T01:27:41;3.22;;;3.22;;
17390;SDS011;8813;54.444;18.446;2024-02-21T01:30:10;3.30;;;3.30;;
17390;SDS011;8813;54.444;18.446;2024-02-21T01:32:37;3.55;;;3.45;;
17390;SDS011;8813;54.444;18.446;2024-02-21T01:35:04;2.90;;;2.90;;
17390;SDS011;8813;54.444;18.446;2024-02-21T01:37:32;6.07;;;5.78;;
17390;SDS011;8813;54.444;18.446;2024-02-21T01:39:59;3.10;;;3.10;;
17390;SDS011;8813;54.444;18.446;2024-02-21T01:42:27;2.67;;;2.67;;
17390;SDS011;8813;54.444;18.446;2024-02-21T01:44:54;3.25;;;3.15;;
17390;SDS011;8813;54.444;18.446;2024-02-21T01:47:23;4.90;;;4.80;;
17390;SDS011;8813;54.444;18.446;2024-02-21T01:49:50;3.03;;;3.03;;
17390;SDS011;8813;54.444;18.446;2024-02-21T01:52:17;3.30;;;3.30;;
17390;SDS011;8813;54.444;18.446;2024-02-21T01:54:44;3.58;;;3.47;;
17390;SDS011;8813;54.444;18.446;2024-02-21T01:57:12;7.55;;;6.93;;
17390;SDS011;8813;54.444;18.446;2024-02-21T01:59:40;3.38;;;3.35;;
17390;SDS011;8813;54.444;18.446;2024-02-21T02:02:07;3.22;;;3.22;;
17390;SDS011;8813;54.444;18.446;2024-02-21T02:04:37;3.65;;;3.55;;
17390;SDS011;8813;54.444;18.446;2024-02-21T02:07:04;3.50;;;3.30;;
17390;SDS011;8813;54.444;18.446;2024-02-21T02:09:33;3.42;;;3.22;;
17390;SDS011;8813;54.444;18.446;2024-02-21T02:12:01;3.53;;;3.42;;
17390;SDS011;8813;54.444;18.446;2024-02-21T02:14:28;3.00;;;3.00;;
17390;SDS011;8813;54.444;18.446;2024-02-21T02:16:55;3.63;;;3.53;;
17390;SDS011;8813;54.444;18.446;2024-02-21T02:19:22;4.13;;;3.75;;
17390;SDS011;8813;54.444;18.446;2024-02-21T02:21:51;2.83;;;2.83;;
17390;SDS011;8813;54.444;18.446;2024-02-21T02:24:23;3.40;;;3.30;;
17390;SDS011;8813;54.444;18.446;2024-02-21T02:26:51;2.90;;;2.90;;
17390;SDS011;8813;54.444;18.446;2024-02-21T02:29:17;3.90;;;3.72;;
17390;SDS011;8813;54.444;18.446;2024-02-21T02:31:44;3.30;;;3.20;;
17390;SDS011;8813;54.444;18.446;2024-02-21T02:34:12;3.40;;;3.30;;
17390;SDS011;8813;54.444;18.446;2024-02-21T02:36:39;3.00;;;3.00;;
17390;SDS011;8813;54.444;18.446;2024-02-21T02:39:05;3.33;;;3.33;;
17390;SDS011;8813;54.444;18.446;2024-02-21T02:41:35;3.30;;;3.30;;
17390;SDS011;8813;54.444;18.446;2024-02-21T02:44:03;14.20;;;5.10;;
17390;SDS011;8813;54.444;18.446;2024-02-21T02:46:30;4.13;;;4.03;;
17390;SDS011;8813;54.444;18.446;2024-02-21T02:48:56;4.03;;;3.92;;
17390;SDS011;8813;54.444;18.446;2024-02-21T02:51:23;3.45;;;3.35;;
17390;SDS011;8813;54.444;18.446;2024-02-21T02:53:50;4.07;;;3.90;;
17390;SDS011;8813;54.444;18.446;2024-02-21T02:56:17;3.90;;;3.80;;
17390;SDS011;8813;54.444;18.446;2024-02-21T02:58:46;4.40;;;4.30;;
17390;SDS011;8813;54.444;18.446;2024-02-21T03:01:13;3.70;;;3.60;;
17390;SDS011;8813;54.444;18.446;2024-02-21T03:03:40;3.80;;;3.70;;
17390;SDS011;8813;54.444;18.446;2024-02-21T03:06:07;4.15;;;4.05;;
17390;SDS011;8813;54.444;18.446;2024-02-21T03:08:34;4.40;;;4.30;;
17390;SDS011;8813;54.444;18.446;2024-02-21T03:11:00;4.82;;;4.63;;
17390;SDS011;8813;54.444;18.446;2024-02-21T03:13:28;6.55;;;4.22;;
17390;SDS011;8813;54.444;18.446;2024-02-21T03:15:56;4.05;;;3.95;;
17390;SDS011;8813;54.444;18.446;2024-02-21T03:18:24;4.10;;;4.00;;
17390;SDS011;8813;54.444;18.446;2024-02-21T03:20:51;4.20;;;4.10;;
17390;SDS011;8813;54.444;18.446;2024-02-21T03:23:18;4.07;;;3.97;;
17390;SDS011;8813;54.444;18.446;2024-02-21T03:25:45;3.72;;;3.63;;
17390;SDS011;8813;54.444;18.446;2024-02-21T03:28:12;4.25;;;4.15;;
17390;SDS011;8813;54.444;18.446;2024-02-21T03:30:39;4.05;;;3.95;;
17390;SDS011;8813;54.444;18.446;2024-02-21T03:33:08;3.92;;;3.83;;
17390;SDS011;8813;54.444;18.446;2024-02-21T03:35:34;3.90;;;3.80;;
17390;SDS011;8813;54.444;18.446;2024-02-21T03:38:01;4.20;;;4.10;;
17390;SDS011;8813;54.444;18.446;2024-02-21T03:40:29;4.20;;;4.10;;
17390;SDS011;8813;54.444;18.446;2024-02-21T03:42:56;4.18;;;3.97;;
17390;SDS011;8813;54.444;18.446;2024-02-21T03:45:23;3.90;;;3.80;;
17390;SDS011;8813;54.444;18.446;2024-02-21T03:47:50;3.50;;;3.40;;
17390;SDS011;8813;54.444;18.446;2024-02-21T03:50:18;4.15;;;4.05;;
17390;SDS011;8813;54.444;18.446;2024-02-21T03:52:45;3.65;;;3.58;;
17390;SDS011;8813;54.444;18.446;2024-02-21T03:55:13;3.67;;;3.58;;
17390;SDS011;8813;54.444;18.446;2024-02-21T03:57:40;3.90;;;3.80;;
17390;SDS011;8813;54.444;18.446;2024-02-21T04:00:07;3.60;;;3.50;;
17390;SDS011;8813;54.444;18.446;2024-02-21T04:02:37;3.10;;;3.10;;
17390;SDS011;8813;54.444;18.446;2024-02-21T04:05:04;3.83;;;3.60;;
17390;SDS011;8813;54.444;18.446;2024-02-21T04:07:32;4.63;;;4.43;;
17390;SDS011;8813;54.444;18.446;2024-02-21T04:09:59;5.05;;;4.95;;
17390;SDS011;8813;54.444;18.446;2024-02-21T04:12:26;3.10;;;3.10;;
17390;SDS011;8813;54.444;18.446;2024-02-21T04:14:53;3.40;;;3.40;;
17390;SDS011;8813;54.444;18.446;2024-02-21T04:17:20;4.00;;;3.90;;
17390;SDS011;8813;54.444;18.446;2024-02-21T04:19:47;3.55;;;3.45;;
17390;SDS011;8813;54.444;18.446;2024-02-21T04:22:14;3.50;;;3.50;;
17390;SDS011;8813;54.444;18.446;2024-02-21T04:24:42;3.20;;;3.20;;
17390;SDS011;8813;54.444;18.446;2024-02-21T04:27:09;3.60;;;3.50;;
17390;SDS011;8813;54.444;18.446;2024-02-21T04:29:36;3.28;;;3.28;;
17390;SDS011;8813;54.444;18.446;2024-02-21T04:32:04;3.65;;;3.55;;
17390;SDS011;8813;54.444;18.446;2024-02-21T04:34:31;5.35;;;3.60;;
17390;SDS011;8813;54.444;18.446;2024-02-21T04:36:58;4.90;;;3.83;;
17390;SDS011;8813;54.444;18.446;2024-02-21T04:39:25;3.78;;;3.67;;
17390;SDS011;8813;54.444;18.446;2024-02-21T04:41:53;3.70;;;3.60;;
17390;SDS011;8813;54.444;18.446;2024-02-21T04:44:20;3.92;;;3.83;;
17390;SDS011;8813;54.444;18.446;2024-02-21T04:46:48;3.60;;;3.50;;
17390;SDS011;8813;54.444;18.446;2024-02-21T04:49:15;3.40;;;3.40;;
17390;SDS011;8813;54.444;18.446;2024-02-21T04:51:42;3.75;;;3.65;;
17390;SDS011;8813;54.444;18.446;2024-02-21T04:54:09;3.70;;;3.60;;
17390;SDS011;8813;54.444;18.446;2024-02-21T04:56:35;3.80;;;3.70;;
17390;SDS011;8813;54.444;18.446;2024-02-21T04:59:04;3.75;;;3.65;;
17390;SDS011;8813;54.444;18.446;2024-02-21T05:01:31;4.22;;;3.60;;
17390;SDS011;8813;54.444;18.446;2024-02-21T05:03:58;3.42;;;3.33;;
17390;SDS011;8813;54.444;18.446;2024-02-21T05:06:24;4.32;;;4.13;;
17390;SDS011;8813;54.444;18.446;2024-02-21T05:08:51;3.90;;;3.80;;
17390;SDS011;8813;54.444;18.446;2024-02-21T05:11:20;3.40;;;3.40;;
17390;SDS011;8813;54.444;18.446;2024-02-21T05:13:47;3.60;;;3.50;;
17390;SDS011;8813;54.444;18.446;2024-02-21T05:16:15;4.00;;;3.90;;
17390;SDS011;8813;54.444;18.446;2024-02-21T05:18:44;3.10;;;3.10;;
17390;SDS011;8813;54.444;18.446;2024-02-21T05:21:11;3.20;;;3.20;;
17390;SDS011;8813;54.444;18.446;2024-02-21T05:23:39;3.53;;;3.45;;
17390;SDS011;8813;54.444;18.446;2024-02-21T05:26:06;6.53;;;3.33;;
17390;SDS011;8813;54.444;18.446;2024-02-21T05:28:33;5.78;;;4.43;;
17390;SDS011;8813;54.444;18.446;2024-02-21T05:31:00;3.67;;;3.58;;
17390;SDS011;8813;54.444;18.446;2024-02-21T05:33:28;3.63;;;3.42;;
17390;SDS011;8813;54.444;18.446;2024-02-21T05:35:55;2.72;;;2.72;;
17390;SDS011;8813;54.444;18.446;2024-02-21T05:38:22;3.40;;;3.30;;
17390;SDS011;8813;54.444;18.446;2024-02-21T05:40:49;3.38;;;3.28;;
17390;SDS011;8813;54.444;18.446;2024-02-21T05:43:16;3.53;;;3.22;;
17390;SDS011;8813;54.444;18.446;2024-02-21T05:45:43;3.38;;;3.25;;
17390;SDS011;8813;54.444;18.446;2024-02-21T05:48:10;3.60;;;3.50;;
17390;SDS011;8813;54.444;18.446;2024-02-21T05:50:38;2.33;;;2.30;;
17390;SDS011;8813;54.444;18.446;2024-02-21T05:53:05;3.22;;;3.10;;
17390;SDS011;8813;54.444;18.446;2024-02-21T05:55:33;10.23;;;5.45;;
17390;SDS011;8813;54.444;18.446;2024-02-21T05:58:00;4.80;;;3.60;;
17390;SDS011;8813;54.444;18.446;2024-02-21T06:00:27;3.78;;;3.55;;
17390;SDS011;8813;54.444;18.446;2024-02-21T06:02:55;2.67;;;2.67;;
17390;SDS011;8813;54.444;18.446;2024-02-21T06:05:24;3.70;;;3.50;;
17390;SDS011;8813;54.444;18.446;2024-02-21T06:07:53;8.18;;;5.50;;
17390;SDS011;8813;54.444;18.446;2024-02-21T06:10:20;3.60;;;3.40;;
17390;SDS011;8813;54.444;18.446;2024-02-21T06:12:47;3.42;;;3.33;;
17390;SDS011;8813;54.444;18.446;2024-02-21T06:15:14;3.67;;;3.47;;
17390;SDS011;8813;54.444;18.446;2024-02-21T06:17:41;7.88;;;3.30;;
17390;SDS011;8813;54.444;18.446;2024-02-21T06:20:08;5.43;;;3.25;;
17390;SDS011;8813;54.444;18.446;2024-02-21T06:22:36;4.35;;;3.70;;
17390;SDS011;8813;54.444;18.446;2024-02-21T06:25:04;3.97;;;3.67;;
17390;SDS011;8813;54.444;18.446;2024-02-21T06:27:31;3.08;;;2.95;;
17390;SDS011;8813;54.444;18.446;2024-02-21T06:29:59;2.95;;;2.78;;
17390;SDS011;8813;54.444;18.446;2024-02-21T06:32:26;4.03;;;2.80;;
17390;SDS011;8813;54.444;18.446;2024-02-21T06:34:52;3.00;;;2.80;;
17390;SDS011;8813;54.444;18.446;2024-02-21T06:37:19;3.10;;;2.90;;
17390;SDS011;8813;54.444;18.446;2024-02-21T06:39:46;3.95;;;3.38;;
17390;SDS011;8813;54.444;18.446;2024-02-21T06:42:15;3.25;;;3.15;;
17390;SDS011;8813;54.444;18.446;2024-02-21T06:44:42;3.20;;;3.00;;
17390;SDS011;8813;54.444;18.446;2024-02-21T06:47:09;2.45;;;2.35;;
17390;SDS011;8813;54.444;18.446;2024-02-21T06:49:35;4.20;;;3.75;;
17390;SDS011;8813;54.444;18.446;2024-02-21T06:52:03;5.72;;;3.40;;
17390;SDS011;8813;54.444;18.446;2024-02-21T06:54:32;3.72;;;3.53;;
17390;SDS011;8813;54.444;18.446;2024-02-21T06:56:59;9.25;;;2.10;;
17390;SDS011;8813;54.444;18.446;2024-02-21T06:59:27;5.20;;;3.55;;
17390;SDS011;8813;54.444;18.446;2024-02-21T07:01:55;4.53;;;4.13;;
17390;SDS011;8813;54.444;18.446;2024-02-21T07:04:22;2.75;;;2.65;;
17390;SDS011;8813;54.444;18.446;2024-02-21T07:06:49;3.15;;;2.97;;
17390;SDS011;8813;54.444;18.446;2024-02-21T07:09:16;3.25;;;2.58;;
17390;SDS011;8813;54.444;18.446;2024-02-21T07:11:43;4.53;;;4.10;;
17390;SDS011;8813;54.444;18.446;2024-02-21T07:14:10;2.63;;;2.53;;
17390;SDS011;8813;54.444;18.446;2024-02-21T07:16:39;2.30;;;2.28;;
17390;SDS011;8813;54.444;18.446;2024-02-21T07:19:06;3.05;;;2.95;;
17390;SDS011;8813;54.444;18.446;2024-02-21T07:21:33;3.53;;;2.53;;
17390;SDS011;8813;54.444;18.446;2024-02-21T07:24:03;5.13;;;2.58;;
17390;SDS011;8813;54.444;18.446;2024-02-21T07:26:32;4.00;;;3.90;;
17390;SDS011;8813;54.444;18.446;2024-02-21T07:29:00;4.35;;;3.47;;
17390;SDS011;8813;54.444;18.446;2024-02-21T07:31:27;4.07;;;3.78;;
17390;SDS011;8813;54.444;18.446;2024-02-21T07:33:55;6.70;;;6.40;;
17390;SDS011;8813;54.444;18.446;2024-02-21T07:36:29;5.40;;;4.82;;
17390;SDS011;8813;54.444;18.446;2024-02-21T07:38:56;4.03;;;3.72;;
17390;SDS011;8813;54.444;18.446;2024-02-21T07:41:24;4.75;;;4.35;;
17390;SDS011;8813;54.444;18.446;2024-02-21T07:43:51;4.55;;;4.15;;
17390;SDS011;8813;54.444;18.446;2024-02-21T07:46:18;10.05;;;6.00;;
17390;SDS011;8813;54.444;18.446;2024-02-21T07:48:45;3.58;;;3.38;;
17390;SDS011;8813;54.444;18.446;2024-02-21T07:51:14;5.43;;;5.00;;
17390;SDS011;8813;54.444;18.446;2024-02-21T07:53:43;28.23;;;10.60;;
17390;SDS011;8813;54.444;18.446;2024-02-21T07:56:11;15.95;;;11.50;;
17390;SDS011;8813;54.444;18.446;2024-02-21T07:58:39;12.93;;;7.80;;
17390;SDS011;8813;54.444;18.446;2024-02-21T08:01:06;28.27;;;10.13;;
17390;SDS011;8813;54.444;18.446;2024-02-21T08:03:33;19.20;;;10.18;;
17390;SDS011;8813;54.444;18.446;2024-02-21T08:06:00;16.10;;;9.63;;
17390;SDS011;8813;54.444;18.446;2024-02-21T08:08:29;13.85;;;7.18;;
17390;SDS011;8813;54.444;18.446;2024-02-21T08:10:55;8.63;;;5.80;;
17390;SDS011;8813;54.444;18.446;2024-02-21T08:13:22;5.57;;;5.22;;
17390;SDS011;8813;54.444;18.446;2024-02-21T08:15:49;13.95;;;10.35;;
17390;SDS011;8813;54.444;18.446;2024-02-21T08:18:16;6.70;;;6.10;;
17390;SDS011;8813;54.444;18.446;2024-02-21T08:20:43;3.60;;;3.35;;
17390;SDS011;8813;54.444;18.446;2024-02-21T08:23:10;4.50;;;4.20;;
17390;SDS011;8813;54.444;18.446;2024-02-21T08:25:39;7.82;;;4.18;;
17390;SDS011;8813;54.444;18.446;2024-02-21T08:28:08;4.32;;;3.88;;
17390;SDS011;8813;54.444;18.446;2024-02-21T08:30:35;3.38;;;3.17;;
17390;SDS011;8813;54.444;18.446;2024-02-21T08:33:02;3.38;;;3.28;;
17390;SDS011;8813;54.444;18.446;2024-02-21T08:35:29;7.40;;;5.53;;
17390;SDS011;8813;54.444;18.446;2024-02-21T08:37:56;2.53;;;2.42;;
17390;SDS011;8813;54.444;18.446;2024-02-21T08:40:23;3.75;;;3.55;;
17390;SDS011;8813;54.444;18.446;2024-02-21T08:42:51;3.30;;;2.97;;
17390;SDS011;8813;54.444;18.446;2024-02-21T08:45:19;5.78;;;3.25;;
17390;SDS011;8813;54.444;18.446;2024-02-21T08:47:48;4.82;;;3.30;;
17390;SDS011;8813;54.444;18.446;2024-02-21T08:50:15;3.72;;;3.53;;
17390;SDS011;8813;54.444;18.446;2024-02-21T08:52:43;3.25;;;3.05;;
17390;SDS011;8813;54.444;18.446;2024-02-21T08:55:10;3.78;;;3.47;;
17390;SDS011;8813;54.444;18.446;2024-02-21T08:57:38;3.58;;;3.38;;
17390;SDS011;8813;54.444;18.446;2024-02-21T09:00:08;3.58;;;3.38;;
17390;SDS011;8813;54.444;18.446;2024-02-21T09:02:39;2.80;;;2.70;;
17390;SDS011;8813;54.444;18.446;2024-02-21T09:05:08;8.95;;;4.90;;
17390;SDS011;8813;54.444;18.446;2024-02-21T09:07:37;11.80;;;4.68;;
17390;SDS011;8813;54.444;18.446;2024-02-21T09:10:05;4.95;;;4.50;;
17390;SDS011;8813;54.444;18.446;2024-02-21T09:12:33;3.70;;;2.47;;
17390;SDS011;8813;54.444;18.446;2024-02-21T09:15:01;6.30;;;5.40;;
17390;SDS011;8813;54.444;18.446;2024-02-21T09:17:40;4.18;;;4.07;;
17390;SDS011;8813;54.444;18.446;2024-02-21T09:20:09;4.18;;;3.97;;
17390;SDS011;8813;54.444;18.446;2024-02-21T09:22:37;4.28;;;4.18;;
17390;SDS011;8813;54.444;18.446;2024-02-21T09:25:14;8.02;;;6.15;;
17390;SDS011;8813;54.444;18.446;2024-02-21T09:30:18;3.75;;;3.63;;
17390;SDS011;8813;54.444;18.446;2024-02-21T09:32:46;6.10;;;5.53;;
17390;SDS011;8813;54.444;18.446;2024-02-21T09:35:13;4.25;;;3.97;;
17390;SDS011;8813;54.444;18.446;2024-02-21T09:37:41;4.97;;;4.55;;
17390;SDS011;8813;54.444;18.446;2024-02-21T09:40:10;6.57;;;6.10;;
17390;SDS011;8813;54.444;18.446;2024-02-21T09:42:38;3.33;;;3.33;;
17390;SDS011;8813;54.444;18.446;2024-02-21T09:45:09;6.22;;;5.72;;
17390;SDS011;8813;54.444;18.446;2024-02-21T09:47:54;4.07;;;3.97;;
17390;SDS011;8813;54.444;18.446;2024-02-21T09:50:41;4.93;;;4.68;;
17390;SDS011;8813;54.444;18.446;2024-02-21T09:53:10;3.50;;;3.40;;
17390;SDS011;8813;54.444;18.446;2024-02-21T09:55:38;5.32;;;5.03;;
17390;SDS011;8813;54.444;18.446;2024-02-21T09:58:08;5.55;;;5.35;;
17390;SDS011;8813;54.444;18.446;2024-02-21T10:00:36;4.82;;;4.55;;
17390;SDS011;8813;54.444;18.446;2024-02-21T10:03:06;4.28;;;4.18;;
17390;SDS011;8813;54.444;18.446;2024-02-21T10:05:35;4.50;;;4.30;;
17390;SDS011;8813;54.444;18.446;2024-02-21T10:08:04;5.88;;;5.35;;
17390;SDS011;8813;54.444;18.446;2024-02-21T10:10:40;5.70;;;5.32;;
17390;SDS011;8813;54.444;18.446;2024-02-21T10:13:11;4.53;;;4.40;;
17390;SDS011;8813;54.444;18.446;2024-02-21T10:16:04;3.70;;;3.60;;
17390;SDS011;8813;54.444;18.446;2024-02-21T10:18:35;3.92;;;3.83;;
17390;SDS011;8813;54.444;18.446;2024-02-21T10:21:04;4.93;;;4.68;;
17390;SDS011;8813;54.444;18.446;2024-02-21T10:23:45;4.03;;;3.90;;
17390;SDS011;8813;54.444;18.446;2024-02-21T10:28:50;4.65;;;4.35;;
17390;SDS011;8813;54.444;18.446;2024-02-21T10:31:26;4.45;;;4.18;;
17390;SDS011;8813;54.444;18.446;2024-02-21T10:33:56;2.92;;;2.75;;
17390;SDS011;8813;54.444;18.446;2024-02-21T10:38:56;5.13;;;4.07;;
17390;SDS011;8813;54.444;18.446;2024-02-21T10:41:23;2.38;;;2.28;;
17390;SDS011;8813;54.444;18.446;2024-02-21T10:43:53;2.90;;;2.80;;
17390;SDS011;8813;54.444;18.446;2024-02-21T10:46:22;3.83;;;3.60;;
17390;SDS011;8813;54.444;18.446;2024-02-21T10:48:55;3.92;;;3.70;;
17390;SDS011;8813;54.444;18.446;2024-02-21T10:54:07;4.25;;;4.00;;
17390;SDS011;8813;54.444;18.446;2024-02-21T10:56:40;4.60;;;4.32;;
17390;SDS011;8813;54.444;18.446;2024-02-21T10:59:12;3.97;;;3.70;;
17390;SDS011;8813;54.444;18.446;2024-02-21T11:01:52;3.10;;;3.00;;
17390;SDS011;8813;54.444;18.446;2024-02-21T11:04:29;3.38;;;3.20;;
17390;SDS011;8813;54.444;18.446;2024-02-21T11:07:06;4.53;;;4.25;;
17390;SDS011;8813;54.444;18.446;2024-02-21T11:09:38;4.20;;;4.00;;
17390;SDS011;8813;54.444;18.446;2024-02-21T11:12:08;7.63;;;3.78;;
17390;SDS011;8813;54.444;18.446;2024-02-21T11:14:48;4.47;;;4.13;;
17390;SDS011;8813;54.444;18.446;2024-02-21T11:17:17;2.63;;;2.63;;
17390;SDS011;8813;54.444;18.446;2024-02-21T11:19:49;3.15;;;3.05;;
17390;SDS011;8813;54.444;18.446;2024-02-21T11:22:23;3.53;;;3.33;;
17390;SDS011;8813;54.444;18.446;2024-02-21T11:25:08;3.95;;;3.67;;
17390;SDS011;8813;54.444;18.446;2024-02-21T11:27:37;4.35;;;3.70;;
17390;SDS011;8813;54.444;18.446;2024-02-21T11:30:11;4.63;;;4.22;;
17390;SDS011;8813;54.444;18.446;2024-02-21T11:32:40;4.95;;;4.72;;
17390;SDS011;8813;54.444;18.446;2024-02-21T11:35:18;4.45;;;4.25;;
17390;SDS011;8813;54.444;18.446;2024-02-21T11:40:41;4.90;;;4.75;;
17390;SDS011;8813;54.444;18.446;2024-02-21T11:43:12;4.00;;;3.85;;
17390;SDS011;8813;54.444;18.446;2024-02-21T11:45:45;3.70;;;3.60;;
17390;SDS011;8813;54.444;18.446;2024-02-21T11:48:22;5.45;;;5.25;;
17390;SDS011;8813;54.444;18.446;2024-02-21T11:53:30;5.05;;;4.68;;
17390;SDS011;8813;54.444;18.446;2024-02-21T11:58:32;4.55;;;4.35;;
17390;SDS011;8813;54.444;18.446;2024-02-21T12:01:00;3.95;;;3.75;;
17390;SDS011;8813;54.444;18.446;2024-02-21T12:03:32;3.25;;;3.15;;
17390;SDS011;8813;54.444;18.446;2024-02-21T12:06:03;5.68;;;3.70;;
17390;SDS011;8813;54.444;18.446;2024-02-21T12:11:19;2.92;;;2.83;;
17390;SDS011;8813;54.444;18.446;2024-02-21T12:13:58;3.38;;;3.08;;
17390;SDS011;8813;54.444;18.446;2024-02-21T12:16:36;2.17;;;2.13;;
17390;SDS011;8813;54.444;18.446;2024-02-21T12:19:05;3.00;;;2.78;;
17390;SDS011;8813;54.444;18.446;2024-02-21T12:21:39;3.15;;;2.78;;
17390;SDS011;8813;54.444;18.446;2024-02-21T12:24:12;3.15;;;2.72;;
17390;SDS011;8813;54.444;18.446;2024-02-21T12:26:48;2.72;;;2.63;;
17390;SDS011;8813;54.444;18.446;2024-02-21T12:31:47;2.80;;;2.63;;
17390;SDS011;8813;54.444;18.446;2024-02-21T12:34:14;2.13;;;2.03;;
17390;SDS011;8813;54.444;18.446;2024-02-21T12:36:43;2.00;;;1.95;;
17390;SDS011;8813;54.444;18.446;2024-02-21T12:39:14;3.55;;;1.98;;
17390;SDS011;8813;54.444;18.446;2024-02-21T12:41:42;2.67;;;1.65;;
17390;SDS011;8813;54.444;18.446;2024-02-21T12:46:49;1.30;;;1.30;;
17390;SDS011;8813;54.444;18.446;2024-02-21T12:49:19;1.45;;;1.45;;
17390;SDS011;8813;54.444;18.446;2024-02-21T12:51:48;1.85;;;1.45;;
17390;SDS011;8813;54.444;18.446;2024-02-21T12:54:15;1.77;;;1.73;;
17390;SDS011;8813;54.444;18.446;2024-02-21T12:56:43;1.60;;;1.60;;
17390;SDS011;8813;54.444;18.446;2024-02-21T12:59:12;2.25;;;2.15;;
17390;SDS011;8813;54.444;18.446;2024-02-21T13:01:40;1.88;;;1.88;;
17390;SDS011;8813;54.444;18.446;2024-02-21T13:04:09;1.27;;;1.27;;
17390;SDS011;8813;54.444;18.446;2024-02-21T13:09:09;1.67;;;1.60;;
17390;SDS011;8813;54.444;18.446;2024-02-21T13:11:37;1.70;;;1.60;;
17390;SDS011;8813;54.444;18.446;2024-02-21T13:14:09;1.33;;;1.27;;
17390;SDS011;8813;54.444;18.446;2024-02-21T13:16:38;3.50;;;1.85;;
17390;SDS011;8813;54.444;18.446;2024-02-21T13:19:05;1.85;;;1.75;;
17390;SDS011;8813;54.444;18.446;2024-02-21T13:21:38;1.08;;;1.08;;
17390;SDS011;8813;54.444;18.446;2024-02-21T13:24:06;1.30;;;1.30;;
17390;SDS011;8813;54.444;18.446;2024-02-21T13:26:36;2.03;;;1.92;;
17390;SDS011;8813;54.444;18.446;2024-02-21T13:29:05;1.10;;;1.10;;
17390;SDS011;8813;54.444;18.446;2024-02-21T13:31:39;1.25;;;1.25;;
17390;SDS011;8813;54.444;18.446;2024-02-21T13:34:06;0.90;;;0.90;;
17390;SDS011;8813;54.444;18.446;2024-02-21T13:36:34;1.15;;;1.15;;
17390;SDS011;8813;54.444;18.446;2024-02-21T13:39:02;1.40;;;1.35;;
17390;SDS011;8813;54.444;18.446;2024-02-21T13:41:31;1.00;;;1.00;;
17390;SDS011;8813;54.444;18.446;2024-02-21T13:44:02;1.05;;;1.05;;
17390;SDS011;8813;54.444;18.446;2024-02-21T13:46:29;2.90;;;1.90;;
17390;SDS011;8813;54.444;18.446;2024-02-21T13:49:03;1.38;;;1.38;;
17390;SDS011;8813;54.444;18.446;2024-02-21T13:51:32;1.30;;;1.30;;
17390;SDS011;8813;54.444;18.446;2024-02-21T13:54:01;2.10;;;2.05;;
17390;SDS011;8813;54.444;18.446;2024-02-21T13:56:30;2.22;;;2.13;;
17390;SDS011;8813;54.444;18.446;2024-02-21T13:58:57;1.95;;;1.95;;
17390;SDS011;8813;54.444;18.446;2024-02-21T14:01:30;1.73;;;1.73;;
17390;SDS011;8813;54.444;18.446;2024-02-21T14:03:59;2.45;;;2.45;;
17390;SDS011;8813;54.444;18.446;2024-02-21T14:06:27;1.75;;;1.75;;
17390;SDS011;8813;54.444;18.446;2024-02-21T14:08:54;1.30;;;1.30;;
17390;SDS011;8813;54.444;18.446;2024-02-21T14:11:22;1.20;;;1.20;;
17390;SDS011;8813;54.444;18.446;2024-02-21T14:13:49;5.47;;;3.25;;
17390;SDS011;8813;54.444;18.446;2024-02-21T14:16:18;1.40;;;1.40;;
17390;SDS011;8813;54.444;18.446;2024-02-21T14:18:48;1.10;;;1.10;;
17390;SDS011;8813;54.444;18.446;2024-02-21T14:21:15;2.00;;;2.00;;
17390;SDS011;8813;54.444;18.446;2024-02-21T14:23:43;0.90;;;0.90;;
17390;SDS011;8813;54.444;18.446;2024-02-21T14:26:10;1.70;;;1.60;;
17390;SDS011;8813;54.444;18.446;2024-02-21T14:28:37;1.20;;;1.20;;
17390;SDS011;8813;54.444;18.446;2024-02-21T14:31:04;1.30;;;1.30;;
17390;SDS011;8813;54.444;18.446;2024-02-21T14:33:34;1.40;;;1.40;;
17390;SDS011;8813;54.444;18.446;2024-02-21T14:36:03;3.70;;;2.47;;
17390;SDS011;8813;54.444;18.446;2024-02-21T14:38:31;3.20;;;3.00;;
17390;SDS011;8813;54.444;18.446;2024-02-21T14:40:58;4.60;;;4.40;;
17390;SDS011;8813;54.444;18.446;2024-02-21T14:43:25;1.95;;;1.85;;
17390;SDS011;8813;54.444;18.446;2024-02-21T14:45:55;1.25;;;1.23;;
17390;SDS011;8813;54.444;18.446;2024-02-21T14:48:23;5.57;;;3.17;;
17390;SDS011;8813;54.444;18.446;2024-02-21T14:50:51;3.05;;;1.77;;
17390;SDS011;8813;54.444;18.446;2024-02-21T14:53:19;3.03;;;2.78;;
17390;SDS011;8813;54.444;18.446;2024-02-21T14:55:47;4.40;;;1.98;;
17390;SDS011;8813;54.444;18.446;2024-02-21T14:58:15;4.43;;;2.67;;
17390;SDS011;8813;54.444;18.446;2024-02-21T15:00:43;4.05;;;2.15;;
17390;SDS011;8813;54.444;18.446;2024-02-21T15:03:10;2.20;;;2.10;;
17390;SDS011;8813;54.444;18.446;2024-02-21T15:05:41;3.30;;;2.55;;
17390;SDS011;8813;54.444;18.446;2024-02-21T15:08:09;11.23;;;2.45;;
17390;SDS011;8813;54.444;18.446;2024-02-21T15:10:38;2.60;;;2.50;;
17390;SDS011;8813;54.444;18.446;2024-02-21T15:13:05;3.83;;;2.92;;
17390;SDS011;8813;54.444;18.446;2024-02-21T15:15:33;4.82;;;3.15;;
17390;SDS011;8813;54.444;18.446;2024-02-21T15:18:00;2.20;;;2.20;;
17390;SDS011;8813;54.444;18.446;2024-02-21T15:20:28;1.95;;;1.95;;
17390;SDS011;8813;54.444;18.446;2024-02-21T15:22:55;1.75;;;1.75;;
17390;SDS011;8813;54.444;18.446;2024-02-21T15:25:22;2.05;;;2.05;;